Time;durP1;ratioP1;P1;durP2;ratioP2;P2;SDS_P1;SDS_P2;PMS_P1;PMS_P2;Temp;Humidity;BMP_temperature;BMP_pressure;BME280_temperature;BME280_humidity;BME280_pressure;Samples;Min_cycle;Max_cycle;Signal;HPM_P1;HPM_P2
2020/12/18 00:00:48;;;;;;;11.48;5.38;;;4.70;99.90;;;;;;5044066;28;20055;-63
2020/12/18 00:03:14;;;;;;;16.48;5.85;;;4.90;99.90;;;;;;5033585;28;20028;-61
2020/12/18 00:05:42;;;;;;;10.45;4.85;;;5.10;99.90;;;;;;5033051;28;20034;-60
2020/12/18 00:08:07;;;;;;;8.95;4.30;;;5.10;99.90;;;;;;5032350;28;20042;-61
2020/12/18 00:10:33;;;;;;;13.32;4.15;;;5.10;99.90;;;;;;5044748;28;20091;-61
2020/12/18 00:12:58;;;;;;;8.05;3.15;;;5.00;99.90;;;;;;5034084;28;20108;-62
2020/12/18 00:15:26;;;;;;;7.93;3.40;;;5.00;99.90;;;;;;5030295;28;20022;-62
2020/12/18 00:17:52;;;;;;;14.90;4.07;;;4.90;99.90;;;;;;5044128;28;20427;-61
2020/12/18 00:20:17;;;;;;;11.20;4.30;;;4.90;99.90;;;;;;5041412;28;20064;-61
2020/12/18 00:22:43;;;;;;;10.65;2.92;;;4.80;99.90;;;;;;5042255;28;20029;-64
2020/12/18 00:25:09;;;;;;;10.07;3.70;;;4.80;99.90;;;;;;5037140;28;20035;-63
2020/12/18 00:27:35;;;;;;;9.70;3.85;;;4.80;99.90;;;;;;5040977;28;20082;-63
2020/12/18 00:30:00;;;;;;;10.57;4.22;;;4.70;99.90;;;;;;5036694;28;20079;-64
2020/12/18 00:32:26;;;;;;;13.50;4.35;;;4.70;99.90;;;;;;5045119;28;20037;-63
2020/12/18 00:34:52;;;;;;;13.73;4.53;;;4.70;99.90;;;;;;5033947;28;20026;-64
2020/12/18 00:37:20;;;;;;;16.45;4.22;;;4.70;99.90;;;;;;5042100;28;20033;-64
2020/12/18 00:39:45;;;;;;;8.40;3.88;;;4.60;99.90;;;;;;5042345;28;20029;-64
2020/12/18 00:42:11;;;;;;;16.35;4.35;;;4.50;99.90;;;;;;5047475;28;20139;-63
2020/12/18 00:44:36;;;;;;;15.20;4.78;;;4.50;99.90;;;;;;5045080;28;20033;-63
2020/12/18 00:47:02;;;;;;;9.57;5.05;;;4.50;99.90;;;;;;5030770;28;20032;-64
2020/12/18 00:49:27;;;;;;;15.82;4.78;;;4.40;99.90;;;;;;5028542;28;20030;-63
2020/12/18 00:51:53;;;;;;;9.32;4.57;;;4.40;99.90;;;;;;5044913;28;20398;-63
2020/12/18 00:54:19;;;;;;;15.75;5.10;;;4.40;99.90;;;;;;5040736;28;20490;-64
2020/12/18 00:56:45;;;;;;;7.68;5.05;;;4.40;99.90;;;;;;5047707;28;20029;-63
2020/12/18 00:59:11;;;;;;;17.80;4.80;;;4.40;99.90;;;;;;5039590;28;20509;-63
2020/12/18 01:01:37;;;;;;;11.43;4.93;;;4.40;99.90;;;;;;5041438;28;20032;-64
2020/12/18 01:04:03;;;;;;;15.57;4.93;;;4.40;99.90;;;;;;5045201;28;20036;-62
2020/12/18 01:06:28;;;;;;;15.00;4.50;;;4.40;99.90;;;;;;5040434;28;20734;-63
2020/12/18 01:08:54;;;;;;;11.50;4.55;;;4.40;99.90;;;;;;5047451;28;20032;-63
2020/12/18 01:11:19;;;;;;;11.75;4.20;;;4.40;99.90;;;;;;5036217;28;20491;-63
2020/12/18 01:13:45;;;;;;;9.63;4.70;;;4.40;99.90;;;;;;5036222;28;20488;-63
2020/12/18 01:16:12;;;;;;;9.10;4.18;;;4.40;99.90;;;;;;5037489;28;20095;-62
2020/12/18 01:18:38;;;;;;;13.80;4.88;;;4.30;99.90;;;;;;5039205;28;20390;-63
2020/12/18 01:21:04;;;;;;;14.15;4.40;;;4.30;99.90;;;;;;5041512;28;20021;-63
2020/12/18 01:23:29;;;;;;;12.18;4.65;;;4.30;99.90;;;;;;5038874;28;20100;-62
2020/12/18 01:25:55;;;;;;;18.70;5.30;;;4.30;99.90;;;;;;5047704;28;20029;-63
2020/12/18 01:28:20;;;;;;;18.02;4.65;;;4.30;99.90;;;;;;5024792;28;20037;-62
2020/12/18 01:30:46;;;;;;;21.50;5.05;;;4.30;99.90;;;;;;5043868;28;20033;-63
2020/12/18 01:33:12;;;;;;;11.00;4.80;;;4.30;99.90;;;;;;5040798;28;20029;-64
2020/12/18 01:35:37;;;;;;;12.18;4.82;;;4.20;99.90;;;;;;5038647;28;20037;-63
2020/12/18 01:38:03;;;;;;;14.25;4.95;;;4.20;99.90;;;;;;5040790;28;20029;-63
2020/12/18 01:40:29;;;;;;;12.55;4.50;;;4.20;99.90;;;;;;5040653;28;20029;-63
2020/12/18 01:42:54;;;;;;;14.05;5.57;;;4.20;99.90;;;;;;5062608;28;20505;-62
2020/12/18 01:45:20;;;;;;;16.77;6.22;;;4.30;99.90;;;;;;5040175;28;20036;-64
2020/12/18 01:47:46;;;;;;;15.10;5.50;;;4.30;99.90;;;;;;5047310;28;20115;-63
2020/12/18 01:50:12;;;;;;;16.40;5.78;;;4.20;99.90;;;;;;5030298;28;20027;-63
2020/12/18 01:52:38;;;;;;;13.45;5.57;;;4.30;99.90;;;;;;5047151;28;20390;-63
2020/12/18 01:55:07;;;;;;;16.83;5.57;;;4.30;99.90;;;;;;5029036;28;20032;-62
2020/12/18 01:57:36;;;;;;;9.88;4.82;;;4.30;99.90;;;;;;5039962;28;20052;-63
2020/12/18 02:00:07;;;;;;;11.13;5.35;;;4.20;99.90;;;;;;5045160;28;20102;-61
2020/12/18 02:02:33;;;;;;;13.98;5.43;;;4.20;99.90;;;;;;5043748;28;20033;-62
2020/12/18 02:04:58;;;;;;;16.92;5.60;;;4.20;99.90;;;;;;5040895;28;20033;-63
2020/12/18 02:07:28;;;;;;;9.27;5.28;;;4.20;99.90;;;;;;5044349;28;20099;-62
2020/12/18 02:09:54;;;;;;;13.27;6.90;;;4.10;99.90;;;;;;5041126;28;20053;-63
2020/12/18 02:12:20;;;;;;;14.98;6.43;;;4.20;99.90;;;;;;5031538;28;20104;-62
2020/12/18 02:14:52;;;;;;;15.50;5.95;;;4.10;99.90;;;;;;5037458;28;20464;-63
2020/12/18 02:17:18;;;;;;;15.38;5.40;;;4.10;99.90;;;;;;5038294;28;20053;-63
2020/12/18 02:19:50;;;;;;;11.90;5.40;;;4.10;99.90;;;;;;5045931;28;20028;-63
2020/12/18 02:22:21;;;;;;;20.92;6.18;;;4.00;99.90;;;;;;5037437;28;20029;-62
2020/12/18 02:25:00;;;;;;;19.85;8.15;;;4.00;99.90;;;;;;5023703;28;20527;-62
2020/12/18 02:27:25;;;;;;;16.00;5.72;;;4.00;99.90;;;;;;5015508;28;20041;-62
2020/12/18 02:29:51;;;;;;;13.77;6.15;;;4.00;99.90;;;;;;5032432;28;20026;-64
2020/12/18 02:32:17;;;;;;;13.70;6.38;;;4.00;99.90;;;;;;5028154;28;20036;-63
2020/12/18 02:34:42;;;;;;;23.25;6.80;;;4.00;99.90;;;;;;5032248;28;20065;-63
2020/12/18 02:37:08;;;;;;;19.75;5.72;;;4.00;99.90;;;;;;5040817;28;20060;-63
2020/12/18 02:39:34;;;;;;;10.30;5.32;;;3.90;99.90;;;;;;5034613;28;20466;-63
2020/12/18 02:42:00;;;;;;;17.00;6.50;;;3.90;99.90;;;;;;5036459;28;20117;-62
2020/12/18 02:44:26;;;;;;;28.50;6.55;;;3.90;99.90;;;;;;5039277;28;20087;-62
2020/12/18 02:46:51;;;;;;;15.00;5.85;;;3.80;99.90;;;;;;5030220;28;20430;-63
2020/12/18 02:49:17;;;;;;;15.43;6.50;;;3.80;99.90;;;;;;5037349;28;20519;-63
2020/12/18 02:51:43;;;;;;;21.85;6.00;;;3.80;99.90;;;;;;5034649;28;20571;-64
2020/12/18 02:54:10;;;;;;;16.42;5.72;;;3.80;99.90;;;;;;5043655;28;20513;-63
2020/12/18 02:56:36;;;;;;;16.42;7.57;;;3.80;99.90;;;;;;5037098;28;20132;-64
2020/12/18 02:59:01;;;;;;;24.00;8.05;;;3.80;99.90;;;;;;5031398;28;20536;-63
2020/12/18 03:01:27;;;;;;;17.27;6.65;;;3.80;99.90;;;;;;5032799;28;20042;-64
2020/12/18 03:03:52;;;;;;;23.25;7.82;;;3.80;99.90;;;;;;5033617;28;20083;-64
2020/12/18 03:06:18;;;;;;;19.98;7.07;;;3.80;99.90;;;;;;5039231;28;20055;-62
2020/12/18 03:08:43;;;;;;;19.52;8.23;;;3.90;99.90;;;;;;5037939;28;20490;-63
2020/12/18 03:11:09;;;;;;;17.58;7.20;;;3.90;99.90;;;;;;5024594;28;20033;-63
2020/12/18 03:13:35;;;;;;;14.73;6.57;;;3.80;99.90;;;;;;5014630;28;20025;-60
2020/12/18 03:16:00;;;;;;;16.17;7.60;;;3.70;99.90;;;;;;5029370;28;20044;-63
2020/12/18 03:18:26;;;;;;;13.48;7.10;;;3.80;99.90;;;;;;5034004;28;20410;-62
2020/12/18 03:20:51;;;;;;;15.45;7.45;;;3.80;99.90;;;;;;5031174;28;20040;-63
2020/12/18 03:23:17;;;;;;;20.10;7.90;;;3.80;99.90;;;;;;5043337;28;20069;-63
2020/12/18 03:25:43;;;;;;;12.88;7.45;;;3.70;99.90;;;;;;5032318;28;20463;-64
2020/12/18 03:28:09;;;;;;;16.52;7.57;;;3.80;99.90;;;;;;5040867;28;20040;-63
2020/12/18 03:30:35;;;;;;;12.45;6.88;;;3.70;99.90;;;;;;5035849;28;20030;-62
2020/12/18 03:33:00;;;;;;;20.98;7.70;;;3.70;99.90;;;;;;5042059;28;20397;-62
2020/12/18 03:35:27;;;;;;;23.27;7.65;;;3.70;99.90;;;;;;5046098;28;20095;-63
2020/12/18 03:37:53;;;;;;;19.83;6.97;;;3.70;99.90;;;;;;5031632;28;20395;-63
2020/12/18 03:40:20;;;;;;;17.70;7.68;;;3.70;99.90;;;;;;5040254;28;20057;-63
2020/12/18 03:42:46;;;;;;;23.42;7.07;;;3.70;99.90;;;;;;5043829;28;20039;-63
2020/12/18 03:45:11;;;;;;;20.33;6.85;;;3.70;99.90;;;;;;5039972;28;20037;-63
2020/12/18 03:47:37;;;;;;;16.65;6.53;;;3.70;99.90;;;;;;5042234;28;20398;-63
2020/12/18 03:50:06;;;;;;;16.08;6.00;;;3.70;99.90;;;;;;5035164;28;20028;-62
2020/12/18 03:52:32;;;;;;;16.85;6.55;;;3.70;99.90;;;;;;5039033;28;20029;-63
2020/12/18 03:54:58;;;;;;;20.88;8.43;;;3.70;99.90;;;;;;5029287;28;20449;-64
2020/12/18 03:57:24;;;;;;;23.85;9.07;;;3.80;99.90;;;;;;5047275;28;20029;-62
2020/12/18 03:59:49;;;;;;;25.45;7.85;;;3.70;99.90;;;;;;5028594;28;20021;-62
2020/12/18 04:02:15;;;;;;;27.40;8.70;;;3.70;99.90;;;;;;5041588;28;20372;-62
2020/12/18 04:04:40;;;;;;;15.10;6.97;;;3.70;99.90;;;;;;5034791;28;20037;-62
2020/12/18 04:07:07;;;;;;;15.38;6.97;;;3.70;99.90;;;;;;5042305;28;20033;-64
2020/12/18 04:09:32;;;;;;;14.55;7.00;;;3.80;99.90;;;;;;5026148;28;20105;-62
2020/12/18 04:11:58;;;;;;;19.40;7.72;;;3.70;99.90;;;;;;5039028;28;20105;-62
2020/12/18 04:14:24;;;;;;;11.68;6.22;;;3.70;99.90;;;;;;5044085;28;20051;-61
2020/12/18 04:16:49;;;;;;;20.17;7.15;;;3.70;99.90;;;;;;5035197;28;20479;-64
2020/12/18 04:19:15;;;;;;;19.55;7.43;;;3.70;99.90;;;;;;5037592;28;20120;-62
2020/12/18 04:21:40;;;;;;;23.10;7.45;;;3.70;99.90;;;;;;5039208;28;20106;-61
2020/12/18 04:24:06;;;;;;;21.35;7.88;;;3.80;99.90;;;;;;5043715;28;20079;-64
2020/12/18 04:26:31;;;;;;;16.83;7.55;;;3.80;99.90;;;;;;5041542;28;20021;-64
2020/12/18 04:28:57;;;;;;;20.30;7.65;;;3.90;99.90;;;;;;5044302;28;20367;-62
2020/12/18 04:31:23;;;;;;;22.40;7.47;;;3.90;99.90;;;;;;5038593;28;20079;-63
2020/12/18 04:33:48;;;;;;;22.50;7.10;;;3.90;99.90;;;;;;5042006;28;20017;-63
2020/12/18 04:36:14;;;;;;;19.55;6.72;;;3.90;99.90;;;;;;5042411;28;20025;-62
2020/12/18 04:38:40;;;;;;;22.10;7.53;;;3.90;99.90;;;;;;5030420;28;20049;-62
2020/12/18 04:41:06;;;;;;;23.63;8.38;;;3.90;99.90;;;;;;5027289;28;20022;-61
2020/12/18 04:43:32;;;;;;;16.95;6.95;;;3.80;99.90;;;;;;5022279;28;20025;-64
2020/12/18 04:45:59;;;;;;;17.15;8.00;;;3.80;99.90;;;;;;5036346;28;20025;-62
2020/12/18 04:48:26;;;;;;;15.25;7.70;;;3.80;99.90;;;;;;5044438;28;20017;-63
2020/12/18 04:50:57;;;;;;;17.20;6.85;;;3.70;99.90;;;;;;5039810;28;20029;-62
2020/12/18 04:53:46;;;;;;;21.15;7.45;;;3.70;99.90;;;;;;5043875;28;20150;-63
2020/12/18 04:56:12;;;;;;;22.75;7.63;;;3.70;99.90;;;;;;5029076;28;20021;-62
2020/12/18 04:58:38;;;;;;;14.27;7.57;;;3.70;99.90;;;;;;5023410;28;20048;-63
2020/12/18 05:01:06;;;;;;;19.80;7.45;;;3.80;99.90;;;;;;5033698;28;20021;-63
2020/12/18 05:03:33;;;;;;;19.27;8.10;;;3.80;99.90;;;;;;5041578;28;20040;-63
2020/12/18 05:06:03;;;;;;;14.32;7.10;;;3.90;99.90;;;;;;5032047;28;20479;-63
2020/12/18 05:08:32;;;;;;;16.25;6.88;;;3.90;99.90;;;;;;5030875;28;20032;-62
2020/12/18 05:10:58;;;;;;;16.20;6.80;;;3.90;99.90;;;;;;5046787;28;20391;-63
2020/12/18 05:13:24;;;;;;;15.93;7.18;;;3.90;99.90;;;;;;5036733;28;20045;-63
2020/12/18 05:15:51;;;;;;;17.52;7.03;;;3.90;99.90;;;;;;5033304;28;20034;-63
2020/12/18 05:18:17;;;;;;;19.88;7.38;;;3.90;99.90;;;;;;5037998;28;20035;-63
2020/12/18 05:20:43;;;;;;;21.48;6.68;;;3.80;99.90;;;;;;5028944;28;20022;-62
2020/12/18 05:23:09;;;;;;;13.77;6.50;;;3.90;99.90;;;;;;5033575;28;20027;-62
2020/12/18 05:25:38;;;;;;;20.75;8.65;;;3.80;99.90;;;;;;5025521;28;20061;-62
2020/12/18 05:28:04;;;;;;;22.17;8.02;;;3.80;99.90;;;;;;5028811;28;20024;-63
2020/12/18 05:30:31;;;;;;;20.70;6.95;;;3.70;99.90;;;;;;5028744;28;20026;-63
2020/12/18 05:32:56;;;;;;;14.50;6.63;;;3.70;99.90;;;;;;5024152;28;20423;-61
2020/12/18 05:35:22;;;;;;;18.33;8.57;;;3.70;99.90;;;;;;5039288;28;20025;-63
2020/12/18 05:37:50;;;;;;;17.20;7.43;;;3.70;99.90;;;;;;5026448;28;20022;-60
2020/12/18 05:40:17;;;;;;;19.25;8.38;;;3.70;99.90;;;;;;5043062;28;20039;-62
2020/12/18 05:42:44;;;;;;;28.15;11.65;;;3.70;99.90;;;;;;5023039;28;20037;-63
2020/12/18 05:45:11;;;;;;;34.92;16.50;;;3.70;99.90;;;;;;5043232;28;20436;-62
2020/12/18 05:47:55;;;;;;;32.95;12.25;;;3.60;99.90;;;;;;5030054;28;20040;-62
2020/12/18 05:50:25;;;;;;;24.80;10.57;;;3.70;99.90;;;;;;5028644;28;20491;-62
2020/12/18 05:53:02;;;;;;;78.18;30.83;;;3.70;99.90;;;;;;5029153;28;20057;-62
2020/12/18 05:55:27;;;;;;;112.45;40.20;;;3.70;99.90;;;;;;5033754;28;20036;-62
2020/12/18 05:57:54;;;;;;;82.70;32.85;;;3.60;99.90;;;;;;5022058;28;20121;-63
2020/12/18 06:00:23;;;;;;;68.28;27.30;;;3.60;99.90;;;;;;5038606;28;20041;-63
2020/12/18 06:02:56;;;;;;;150.38;53.88;;;3.60;99.90;;;;;;5042960;28;20032;-62
2020/12/18 06:05:24;;;;;;;81.22;29.85;;;3.70;99.90;;;;;;5044742;28;20033;-62
2020/12/18 06:07:51;;;;;;;264.80;92.88;;;3.70;99.90;;;;;;5035466;28;20033;-61
2020/12/18 06:10:23;;;;;;;210.95;70.70;;;3.80;99.90;;;;;;5043885;28;20020;-63
2020/12/18 06:12:50;;;;;;;182.38;71.45;;;3.80;99.90;;;;;;5038017;28;20108;-62
2020/12/18 06:15:18;;;;;;;185.82;82.07;;;3.80;99.90;;;;;;5034594;28;20025;-62
2020/12/18 06:17:48;;;;;;;66.38;33.17;;;3.80;99.90;;;;;;5046187;28;20442;-62
2020/12/18 06:20:14;;;;;;;55.53;28.60;;;3.80;99.90;;;;;;5033787;28;20029;-60
2020/12/18 06:22:56;;;;;;;47.30;21.83;;;3.80;99.90;;;;;;5042133;28;20110;-61
2020/12/18 06:25:21;;;;;;;28.88;15.48;;;3.70;99.90;;;;;;5032797;28;20037;-62
2020/12/18 06:27:56;;;;;;;31.65;15.20;;;3.70;99.90;;;;;;5041464;28;20406;-62
2020/12/18 06:30:22;;;;;;;27.67;13.75;;;3.70;99.90;;;;;;5038517;28;20030;-62
2020/12/18 06:32:47;;;;;;;26.00;10.82;;;3.70;99.90;;;;;;5036221;28;20661;-61
2020/12/18 06:35:34;;;;;;;29.60;12.10;;;3.70;99.90;;;;;;5035317;28;20029;-62
2020/12/18 06:38:12;;;;;;;24.52;11.30;;;3.80;99.90;;;;;;5040281;28;20123;-62
2020/12/18 06:40:37;;;;;;;22.08;11.25;;;3.80;99.90;;;;;;5042042;28;20044;-62
2020/12/18 06:43:03;;;;;;;22.88;9.63;;;3.80;99.90;;;;;;5019780;28;20025;-62
2020/12/18 06:45:29;;;;;;;32.20;13.15;;;3.90;99.90;;;;;;5038973;28;20163;-63
2020/12/18 06:47:55;;;;;;;45.08;17.52;;;3.90;99.90;;;;;;5039459;28;20025;-62
2020/12/18 06:50:21;;;;;;;33.08;17.20;;;3.90;99.90;;;;;;5041307;28;20039;-63
2020/12/18 06:52:47;;;;;;;32.00;13.05;;;3.90;99.90;;;;;;5034481;28;20419;-61
2020/12/18 06:55:32;;;;;;;28.10;11.43;;;4.00;99.90;;;;;;5025175;28;20063;-62
2020/12/18 06:58:09;;;;;;;25.92;12.48;;;4.10;99.90;;;;;;5048495;28;20486;-62
2020/12/18 07:00:56;;;;;;;22.67;11.90;;;4.20;99.90;;;;;;5030316;28;20029;-62
2020/12/18 07:03:36;;;;;;;36.70;13.02;;;4.20;99.90;;;;;;5034736;28;20088;-63
2020/12/18 07:06:04;;;;;;;51.00;26.05;;;4.20;99.90;;;;;;4961845;28;20045;-61
2020/12/18 07:08:31;;;;;;;45.80;19.13;;;4.20;99.90;;;;;;5037890;28;20037;-62
2020/12/18 07:11:09;;;;;;;36.90;20.20;;;4.10;99.90;;;;;;5028075;28;20542;-60
2020/12/18 07:13:35;;;;;;;35.72;15.38;;;4.10;99.90;;;;;;5011327;28;20670;-60
2020/12/18 07:16:05;;;;;;;20.08;9.52;;;4.10;99.90;;;;;;5023666;28;20057;-61
2020/12/18 07:18:42;;;;;;;27.85;9.70;;;4.20;99.90;;;;;;5019774;28;20848;-60
2020/12/18 07:21:16;;;;;;;28.40;10.30;;;4.30;99.90;;;;;;5014385;28;20491;-61
2020/12/18 07:23:43;;;;;;;19.85;9.05;;;4.30;99.90;;;;;;5010625;28;20647;-61
2020/12/18 07:26:11;;;;;;;22.17;9.85;;;4.30;99.90;;;;;;5017323;28;20018;-61
2020/12/18 07:28:42;;;;;;;20.92;8.55;;;4.30;99.90;;;;;;5008476;28;20033;-61
2020/12/18 07:31:21;;;;;;;21.13;8.75;;;4.40;99.90;;;;;;5014525;28;20022;-60
2020/12/18 07:33:54;;;;;;;18.77;9.05;;;4.40;99.90;;;;;;4999618;28;20052;-61
2020/12/18 07:36:20;;;;;;;28.58;9.95;;;4.40;99.90;;;;;;5026503;28;20026;-60
2020/12/18 07:38:46;;;;;;;19.35;8.85;;;4.40;99.90;;;;;;5011579;28;20091;-61
2020/12/18 07:41:16;;;;;;;24.13;9.45;;;4.30;99.90;;;;;;5008631;28;20025;-62
2020/12/18 07:43:44;;;;;;;22.13;8.93;;;4.40;99.90;;;;;;5007545;28;20041;-60
2020/12/18 07:46:12;;;;;;;20.00;8.43;;;4.30;99.90;;;;;;5009859;28;20075;-62
2020/12/18 07:48:41;;;;;;;22.05;8.85;;;4.40;99.90;;;;;;5005690;28;20030;-60
2020/12/18 07:51:08;;;;;;;19.33;8.48;;;4.40;99.90;;;;;;5012025;28;20444;-62
2020/12/18 07:53:42;;;;;;;21.20;8.38;;;4.40;99.90;;;;;;5009228;28;20038;-62
2020/12/18 07:56:18;;;;;;;22.13;9.30;;;4.40;99.90;;;;;;5025007;28;20030;-61
2020/12/18 07:58:50;;;;;;;22.55;8.63;;;4.50;99.90;;;;;;5028869;28;20503;-61
2020/12/18 08:01:21;;;;;;;19.55;8.90;;;4.60;99.90;;;;;;5011082;28;20442;-61
2020/12/18 08:04:08;;;;;;;24.13;9.32;;;4.70;99.90;;;;;;5011124;28;20030;-62
2020/12/18 08:06:37;;;;;;;15.13;7.85;;;4.80;99.90;;;;;;4996314;28;20049;-60
2020/12/18 08:09:08;;;;;;;25.60;7.93;;;4.80;99.90;;;;;;5023588;28;20026;-62
2020/12/18 08:11:50;;;;;;;18.42;7.30;;;4.90;99.90;;;;;;5012663;28;20026;-61
2020/12/18 08:14:17;;;;;;;14.57;8.43;;;4.90;99.90;;;;;;5014123;28;20090;-67
2020/12/18 08:16:43;;;;;;;17.02;7.25;;;4.90;99.90;;;;;;5023960;28;20086;-60
2020/12/18 08:19:10;;;;;;;22.58;6.70;;;5.00;99.90;;;;;;5014281;28;20026;-63
2020/12/18 08:21:44;;;;;;;17.08;7.00;;;5.00;99.90;;;;;;5014378;28;20041;-62
2020/12/18 08:24:34;;;;;;;15.80;6.60;;;5.00;99.90;;;;;;5022051;28;20030;-62
2020/12/18 08:27:01;;;;;;;24.83;8.43;;;5.10;99.90;;;;;;5013494;28;20071;-63
2020/12/18 08:29:33;;;;;;;17.88;7.10;;;5.10;99.90;;;;;;5013039;28;20041;-62
2020/12/18 08:32:02;;;;;;;14.18;6.88;;;5.10;99.90;;;;;;5016753;28;20033;-62
2020/12/18 08:34:30;;;;;;;12.80;5.75;;;5.20;99.90;;;;;;5024997;28;20018;-62
2020/12/18 08:36:57;;;;;;;10.68;5.28;;;5.20;99.90;;;;;;5029368;28;20090;-62
2020/12/18 08:39:28;;;;;;;12.63;5.53;;;5.30;99.90;;;;;;5047495;28;20033;-61
2020/12/18 08:41:55;;;;;;;15.52;5.18;;;5.40;99.90;;;;;;5027292;28;20030;-62
2020/12/18 08:44:23;;;;;;;9.90;4.97;;;5.40;99.90;;;;;;5029392;28;20052;-63
2020/12/18 08:46:50;;;;;;;10.40;4.78;;;5.50;99.90;;;;;;5019259;28;20025;-61
2020/12/18 08:49:24;;;;;;;9.45;4.53;;;5.50;99.90;;;;;;5038416;28;20036;-61
2020/12/18 08:51:52;;;;;;;9.02;4.60;;;5.50;99.90;;;;;;5033565;28;20034;-62
2020/12/18 08:54:33;;;;;;;11.77;4.55;;;5.60;99.90;;;;;;5024827;28;20037;-63
2020/12/18 08:57:24;;;;;;;7.30;4.38;;;5.60;99.90;;;;;;5034708;28;20167;-62
2020/12/18 08:59:57;;;;;;;13.13;4.15;;;5.70;99.90;;;;;;5019944;28;20412;-64
2020/12/18 09:02:23;;;;;;;12.25;4.38;;;5.80;99.90;;;;;;5033331;28;20610;-62
2020/12/18 09:05:23;;;;;;;8.27;4.13;;;5.90;99.90;;;;;;5023305;28;20080;-62
2020/12/18 09:07:51;;;;;;;15.82;6.68;;;5.90;99.90;;;;;;5032045;28;20068;-62
2020/12/18 09:10:40;;;;;;;9.18;4.35;;;6.00;99.90;;;;;;5039125;28;20433;-64
2020/12/18 09:13:14;;;;;;;19.23;7.18;;;6.00;99.90;;;;;;5010325;28;20393;-63
2020/12/18 09:15:41;;;;;;;10.70;5.10;;;6.10;99.90;;;;;;5015342;28;20057;-62
2020/12/18 09:18:15;;;;;;;9.30;3.55;;;6.20;99.90;;;;;;5035394;28;20017;-62
2020/12/18 09:20:43;;;;;;;7.45;3.40;;;6.30;99.90;;;;;;5036317;28;20044;-63
2020/12/18 09:23:14;;;;;;;5.90;3.15;;;6.40;99.90;;;;;;5020603;28;20494;-63
2020/12/18 09:25:47;;;;;;;10.05;3.83;;;6.40;99.90;;;;;;5020159;28;20180;-62
2020/12/18 09:28:18;;;;;;;8.63;3.40;;;6.50;99.90;;;;;;5031144;28;20501;-63
2020/12/18 09:30:55;;;;;;;10.00;3.83;;;6.50;99.90;;;;;;5033794;28;20033;-62
2020/12/18 09:33:23;;;;;;;8.07;3.47;;;6.60;99.90;;;;;;5024297;28;20111;-62
2020/12/18 09:35:50;;;;;;;9.32;3.30;;;6.60;99.90;;;;;;5035477;28;20048;-61
2020/12/18 09:38:20;;;;;;;8.20;3.85;;;6.70;99.90;;;;;;5031795;28;20021;-62
2020/12/18 09:40:45;;;;;;;12.55;3.50;;;6.80;99.90;;;;;;5030786;28;20067;-62
2020/12/18 09:43:11;;;;;;;7.88;3.38;;;6.80;99.90;;;;;;5027643;28;20080;-62
2020/12/18 09:45:36;;;;;;;12.55;3.60;;;6.90;99.90;;;;;;5019468;28;20046;-64
2020/12/18 09:48:02;;;;;;;10.60;3.20;;;6.90;99.90;;;;;;5020166;28;20036;-64
2020/12/18 09:50:28;;;;;;;6.40;3.10;;;6.90;99.90;;;;;;5015223;28;20032;-63
2020/12/18 09:52:53;;;;;;;8.52;3.65;;;6.90;99.90;;;;;;5030665;28;20075;-63
2020/12/18 09:55:19;;;;;;;11.32;4.20;;;7.00;99.90;;;;;;5012619;28;20080;-63
2020/12/18 09:57:44;;;;;;;6.00;3.33;;;7.00;99.90;;;;;;5020822;28;20029;-63
2020/12/18 10:00:10;;;;;;;11.95;3.13;;;7.00;99.90;;;;;;5028242;28;20100;-63
2020/12/18 10:02:36;;;;;;;7.68;3.22;;;7.10;99.90;;;;;;5014206;28;20038;-61
2020/12/18 10:05:02;;;;;;;10.75;3.65;;;7.10;99.90;;;;;;5008947;28;20357;-63
2020/12/18 10:07:27;;;;;;;9.07;4.07;;;7.20;99.90;;;;;;5017062;28;20025;-63
2020/12/18 10:09:53;;;;;;;6.45;3.17;;;7.20;99.90;;;;;;5020993;28;20476;-63
2020/12/18 10:12:19;;;;;;;9.52;5.05;;;7.30;99.90;;;;;;5019967;28;20480;-63
2020/12/18 10:14:44;;;;;;;20.20;9.20;;;7.30;99.90;;;;;;5014723;28;20660;-63
2020/12/18 10:17:10;;;;;;;9.38;4.47;;;7.30;99.90;;;;;;5019061;28;20032;-62
2020/12/18 10:19:36;;;;;;;11.63;5.75;;;7.40;99.90;;;;;;5019852;28;20033;-64
2020/12/18 10:22:02;;;;;;;5.25;3.58;;;7.50;99.90;;;;;;5024367;28;20017;-63
2020/12/18 10:24:28;;;;;;;5.93;3.60;;;7.50;99.90;;;;;;5021957;28;20026;-63
2020/12/18 10:26:53;;;;;;;7.25;3.08;;;7.60;99.90;;;;;;5023348;28;20021;-63
2020/12/18 10:29:19;;;;;;;8.00;4.15;;;7.50;99.90;;;;;;5032159;28;20511;-62
2020/12/18 10:31:45;;;;;;;9.63;4.00;;;7.60;99.90;;;;;;5019581;28;20028;-64
2020/12/18 10:34:10;;;;;;;7.45;3.83;;;7.60;99.90;;;;;;5031232;28;20101;-62
2020/12/18 10:36:36;;;;;;;8.10;4.78;;;7.70;99.90;;;;;;5019334;28;20022;-63
2020/12/18 10:39:01;;;;;;;10.93;3.85;;;7.70;99.90;;;;;;5020362;28;20091;-64
2020/12/18 10:41:27;;;;;;;8.98;3.58;;;7.70;99.90;;;;;;5020031;28;20376;-63
2020/12/18 10:43:53;;;;;;;11.07;3.67;;;7.80;99.90;;;;;;5023513;28;20033;-63
2020/12/18 10:46:18;;;;;;;7.18;2.97;;;7.80;99.90;;;;;;5025153;28;20033;-62
2020/12/18 10:48:44;;;;;;;5.72;3.58;;;7.90;99.90;;;;;;5014162;28;20037;-63
2020/12/18 10:51:09;;;;;;;9.05;3.28;;;7.90;99.90;;;;;;5019481;28;20033;-61
2020/12/18 10:53:35;;;;;;;7.22;3.30;;;7.90;99.90;;;;;;5011410;28;20022;-63
2020/12/18 10:56:01;;;;;;;6.20;3.55;;;7.90;99.90;;;;;;5015666;28;20029;-64
2020/12/18 10:58:26;;;;;;;7.50;3.30;;;8.00;99.90;;;;;;5016348;28;20038;-63
2020/12/18 11:00:52;;;;;;;5.32;2.65;;;8.00;99.90;;;;;;5014148;28;20083;-63
2020/12/18 11:03:17;;;;;;;8.15;2.85;;;8.10;99.90;;;;;;5015091;28;20033;-62
2020/12/18 11:05:43;;;;;;;6.22;2.88;;;8.10;99.90;;;;;;4997410;28;20107;-62
2020/12/18 11:08:09;;;;;;;7.85;2.70;;;8.10;99.90;;;;;;5014384;28;20511;-63
2020/12/18 11:10:34;;;;;;;7.32;2.92;;;8.10;99.90;;;;;;5023346;28;20048;-63
2020/12/18 11:13:01;;;;;;;5.13;2.55;;;8.10;99.90;;;;;;5013431;28;20056;-63
2020/12/18 11:15:27;;;;;;;8.07;3.50;;;8.20;99.90;;;;;;5024524;28;20399;-62
2020/12/18 11:17:52;;;;;;;7.20;3.25;;;8.20;99.90;;;;;;5029622;28;20037;-63
2020/12/18 11:20:18;;;;;;;6.75;3.17;;;8.30;99.90;;;;;;5013879;28;20033;-62
2020/12/18 11:22:44;;;;;;;5.75;2.75;;;8.30;99.90;;;;;;5012982;28;20033;-63
2020/12/18 11:25:09;;;;;;;4.28;2.60;;;8.30;99.90;;;;;;5009333;28;20449;-63
2020/12/18 11:27:35;;;;;;;6.45;2.75;;;8.40;99.90;;;;;;5012511;28;20037;-63
2020/12/18 11:30:00;;;;;;;8.55;2.25;;;8.40;99.90;;;;;;5026068;28;20029;-62
2020/12/18 11:32:26;;;;;;;4.93;2.63;;;8.40;99.90;;;;;;5023505;28;20491;-63
2020/12/18 11:34:51;;;;;;;7.43;2.35;;;8.50;99.90;;;;;;5027963;28;20025;-63
2020/12/18 11:37:17;;;;;;;9.48;2.88;;;8.50;99.90;;;;;;5017668;28;20048;-62
2020/12/18 11:39:43;;;;;;;4.45;2.65;;;8.50;99.90;;;;;;5025742;28;20022;-64
2020/12/18 11:42:08;;;;;;;4.47;2.47;;;8.50;99.90;;;;;;5017268;28;20049;-64
2020/12/18 11:44:34;;;;;;;3.92;2.10;;;8.60;99.90;;;;;;5014264;28;20032;-63
2020/12/18 11:46:59;;;;;;;7.57;2.45;;;8.60;99.90;;;;;;5032546;28;21327;-62
2020/12/18 11:49:25;;;;;;;7.20;2.83;;;8.60;99.90;;;;;;5015365;28;20041;-64
2020/12/18 11:51:50;;;;;;;6.20;3.42;;;8.60;99.90;;;;;;5016526;28;20025;-64
2020/12/18 11:54:16;;;;;;;7.07;2.70;;;8.60;99.90;;;;;;5017175;28;20112;-63
2020/12/18 11:56:46;;;;;;;6.95;3.15;;;8.60;99.90;;;;;;5016510;28;20014;-62
2020/12/18 11:59:12;;;;;;;6.03;2.78;;;8.60;99.90;;;;;;5024995;28;20033;-61
2020/12/18 12:01:38;;;;;;;5.60;3.20;;;8.60;99.90;;;;;;5019147;28;20534;-64
2020/12/18 12:04:03;;;;;;;5.10;2.60;;;8.70;99.90;;;;;;5038988;28;20486;-62
2020/12/18 12:06:29;;;;;;;6.13;2.28;;;8.70;99.90;;;;;;5003480;28;20133;-64
2020/12/18 12:08:59;;;;;;;4.40;2.28;;;8.70;99.90;;;;;;5017852;28;20063;-64
2020/12/18 12:11:25;;;;;;;4.53;1.95;;;8.70;99.90;;;;;;5014518;28;20026;-63
2020/12/18 12:13:51;;;;;;;6.80;2.63;;;8.70;99.90;;;;;;5018393;28;20029;-63
2020/12/18 12:16:16;;;;;;;8.00;2.15;;;8.70;99.90;;;;;;5011878;28;20025;-62
2020/12/18 12:18:42;;;;;;;3.45;1.90;;;8.70;99.90;;;;;;5015541;28;20036;-63
2020/12/18 12:21:08;;;;;;;9.32;2.25;;;8.70;99.90;;;;;;5015368;28;20088;-62
2020/12/18 12:23:34;;;;;;;7.18;2.55;;;8.70;99.90;;;;;;5020479;28;20029;-61
2020/12/18 12:25:59;;;;;;;9.73;2.40;;;8.70;99.90;;;;;;5016722;28;20524;-62
2020/12/18 12:28:25;;;;;;;6.45;2.33;;;8.70;99.90;;;;;;5016487;28;20456;-62
2020/12/18 12:30:51;;;;;;;6.35;1.95;;;8.60;99.90;;;;;;5021131;28;20022;-62
2020/12/18 12:33:16;;;;;;;4.50;2.92;;;8.60;99.90;;;;;;5015964;28;20022;-62
2020/12/18 12:35:43;;;;;;;11.13;2.83;;;8.60;99.90;;;;;;5013603;28;20045;-63
2020/12/18 12:38:09;;;;;;;9.50;3.10;;;8.60;99.90;;;;;;5016956;28;20483;-63
2020/12/18 12:40:35;;;;;;;6.82;3.55;;;8.60;99.90;;;;;;5015353;28;20025;-63
2020/12/18 12:43:00;;;;;;;7.57;2.63;;;8.60;99.90;;;;;;5019773;28;20032;-62
2020/12/18 12:45:26;;;;;;;7.40;2.50;;;8.70;99.90;;;;;;5029985;28;20033;-62
2020/12/18 12:47:52;;;;;;;5.65;2.28;;;8.70;99.90;;;;;;5023788;28;20024;-63
2020/12/18 12:50:18;;;;;;;5.47;2.50;;;8.70;99.90;;;;;;5025175;28;20071;-62